Sapporo, Japan

11:35 AM JST on February 08, 2016 (GMT +0900)
New Chitose | | Change Station
CLOSE
Current Station
Airport
Location: Chitose AB,
Elevation: 98 ft
Nearby Weather Stations

Elev 98 ft 42.77 °N, 141.69 °E | Updated 35 minutes ago

Partly Cloudy
Partly Cloudy
25 °F
Feels Like 19 °F
N
5
Wind Variable Wind from NE

Today
High -- | Low -- °F
--% Chance of Precip.
Yesterday
High -- | Low -- °F
Precip. -- in
Pressure 30.06 in
Visibility 6.2 miles
Clouds Few 3000 ft
Windchill 19 °F
Dew Point 14 °F
Humidity 64%
Rainfall 0.00 in
Snow Depth Not available.
6:43 AM 4:55 PM
Waning Crescent, 0% visible
METAR RJCC 080200Z 04004KT 320V090 9999 FEW030 M04/M10 Q1018 RMK 1CU030 A3007
Pressure 30.06 in
Visibility 6.2 miles
Clouds Few 3000 ft
Windchill 19 °F
Dew Point 14 °F
Humidity 64%
Rainfall 0.00 in
Snow Depth Not available.
6:43 AM 4:55 PM
Waning Crescent, 0% visible
METAR RJCC 080200Z 04004KT 320V090 9999 FEW030 M04/M10 Q1018 RMK 1CU030 A3007

10-Day Weather Forecast

No radar image for this location.
×

Almanac

Astronomy

Feb. 08, 2016 Rise Set
Actual Time
Civil Twilight
Nautical Twilight
Astronomical Twilight
Moon
Length of Visible Light
Length of Day
Tomorrow will be .
, % of the Moon is Illuminated

Today's Extremes

Country Highs Country Lows

Community

WunderPhotos

Upload Photos

1,891,373 photos uploaded!

WunderBlog® & News

Nearby

Air Quality

  Air Quality AQ Index Pollutant
Not available.

Snow Depth

Station Depth Elevation

Earthquake Activity

City Distance Mag. Time & Date
Minimum magnitude displayed is 2.5.

Coastal Water Temperatures

Place Temperature

Stations

Nearby Weather Stations

Station Location Temp. Windchill Dew Point Humidity Wind Precip. Elev Updated Type